Pagrindinis puslapis
METAR-TAF:

METAR-TAF

Oro uostai :

Upsala, Švedija

platuma: 59-53N, ilguma: 017-36E, Aukštis: 21 m

Dabartinis oras

Ataskaita buvo paskelbta 20 minutes, ne 12:50 UTC
Vėjas 10 kt iš Šiaurės
Temperatūra -5°C
Drėgmė 93%
Slėgis 992 hPa
Matomumas 10 km arba daugiau
Apsiniaukę ne aukštis 700 ft

METAR: ESCM 021250Z 35010KT 9999 OVC007 M05/M06 Q0992

Laikas: 14:10 (13:10 UTC)

Prognozė

Ataskaita buvo paskelbta 1 valandą ir 40 minutes, ne 11:30 UTC
Prognozė galioja nuo 02 metu 12 UTC su 02 metu 21 UTC
Vėjas 10 kt iš Šiaurės su gūsio iki 20 kt
Matomumas 10 km arba daugiau
Išsisklaidę debesys ne aukštis 500 ft
Su prošvaistėmis ne aukštis 3000 ft
Laikinai
nuo 02 metu 12 UTC su 02 metu 21 UTC
Matomumas: 2000 m
Su prošvaistėmis ne aukštis 500 ft
Su prošvaistėmis ne aukštis 3000 ft, aukštai iškilę kamuoliniai debesys.
sniegas

TAF: ESCM 021130Z 0212/0221 36010G20KT 9999 SCT005 BKN030 TEMPO 0212/0221 2000 SHSN BKN005 BKN030TCU RMK MIL

Orai ataskaitas ir orų prognozės (METAR, TAF).

turimą stotys yra geltonos ir raudonos taškus žemėlapyje.

Perkelti pele per norėdami pamatyti stoties vardą.

Tada spustelėkite, norėdami matyti oro stebėjimo ir prognozės.

Norėdami pakeisti žemėlapį: spustelėkite ant žalios mygtukų su juodo kryžiaus žemyn,; žalią mygtuką su brūkšneliu, jei norite nutolinti; arba žalių rodyklių gretimoms žemėlapius.


METAR-TAF: